Mayport Ns (Adm David L. Mcdonald Field) Airport
KNRB : now visible

Airfield :











YOU CAN JOIN US ON...

 
LOGIN :

Register | Disclaimer

   EN    FR    IT 

 









Legend :    VFR   Marginal VFR   IFR   Intensive IFR   Very Intensive IFR
Visi :
Ceiling :
>= 8 km
>= 3000ft
5 to 8 km
1000 to 3000 ft
1500m to 5 km
500 to 1000 ft
800 to 1500m
200 to 500 ft
< 800m
< 200 ft
Symbols :   Thunderstorms  Fog  Heavy snow  Heavy precipitations  Wind > 20 kt






- Airport Elevation : 15 ft


KNRB - Mayport Ns (Adm David L. Mcdonald Field)

CURRENT METAR :
  • 271852Z 05004KT 10SM OVC085 15/08 A2992 RMK AO2 SLP131 T01500083 $

EXPIRED METARs :
  • 271752Z 07005KT 10SM BKN090 15/09 A2994 RMK AO2 SLP139 60000 T01500089 10150 20117 58021 $
  • 271652Z 05004KT 10SM FEW040 BKN100 14/08 A2998 RMK AO2 RAB30E41 SLP151 P0000 T01440083 $

TAF TAF KNRB
Valid from the 27 at 15:00 until the 28 at 15:00 UTC


2715/2815 06006KT 9999 VCSH SCT040 BKN100 QNH2990INS
FM271900 VRB05KT 9999 BKN050 BKN100 QNH2988INS
FM280300 29008KT 9999 FEW080 QNH2995INS T17/2719Z T07/2812Z FN20021



MET'MAP, your aeronautical weather chart ! - Copyright ORBIFLY December 2007 - Disclaimer

ORBIFLY MET'MAP TEAM :

Programming & Development : Alexandra Zaïnal
Concept & original design : Baudouin d'Aumeries
Assistance for programming : Marc-Olivier Méhu
Technical & hardware support : Manuel Goepfert

Contact : metmap@orbifly.com




SOURCES & CREDITS :

   NOAA       Earth
Advisory